createdAt,value
2018-06-21T00:01:01.879Z,59.71
2018-06-21T00:03:30.191Z,59.79
2018-06-21T00:05:58.525Z,59.58
2018-06-21T00:08:26.278Z,59.70
2018-06-21T00:10:55.177Z,59.83
2018-06-21T00:13:23.516Z,59.70
2018-06-21T00:15:51.321Z,59.66
2018-06-21T00:18:20.221Z,59.74
2018-06-21T00:20:47.964Z,59.87
2018-06-21T00:23:16.301Z,59.81
2018-06-21T00:25:44.635Z,59.47
2018-06-21T00:28:12.962Z,59.46
2018-06-21T00:30:41.896Z,59.38
2018-06-21T00:33:09.637Z,59.39
2018-06-21T00:35:37.979Z,59.33
2018-06-21T00:38:06.889Z,59.45
2018-06-21T00:40:35.219Z,59.45
2018-06-21T00:43:03.566Z,59.79
2018-06-21T00:45:31.316Z,60.13
2018-06-21T00:48:00.215Z,60.20
2018-06-21T00:50:28.551Z,60.25
2018-06-21T00:52:56.868Z,60.34
2018-06-21T00:55:25.189Z,60.36
2018-06-21T00:57:53.528Z,60.34
2018-06-21T01:00:21.842Z,60.74
2018-06-21T01:02:50.170Z,61.21
2018-06-21T01:05:18.492Z,61.15
2018-06-21T01:07:46.804Z,60.91
2018-06-21T01:10:15.134Z,60.72
2018-06-21T01:12:43.501Z,60.63
2018-06-21T01:15:11.864Z,60.51
2018-06-21T01:17:40.226Z,60.49
2018-06-21T01:20:08.550Z,60.26
2018-06-21T01:22:36.350Z,60.14
2018-06-21T01:25:04.708Z,59.98
2018-06-21T01:27:33.024Z,59.90
2018-06-21T01:30:01.921Z,59.81
2018-06-21T01:32:29.669Z,59.71
2018-06-21T01:34:58.577Z,59.60
2018-06-21T01:37:26.901Z,59.57
2018-06-21T01:39:55.261Z,59.56
2018-06-21T01:42:23.588Z,59.46
2018-06-21T01:44:51.900Z,59.36
2018-06-21T01:47:20.242Z,59.29
2018-06-21T01:49:47.977Z,59.26
2018-06-21T01:52:16.302Z,59.25
2018-06-21T01:54:45.202Z,59.22
2018-06-21T01:57:12.945Z,59.14
2018-06-21T01:59:41.869Z,59.05
2018-06-21T02:02:09.633Z,58.98
2018-06-21T02:04:38.545Z,58.90
2018-06-21T02:07:06.869Z,58.76
2018-06-21T02:09:35.190Z,58.64
2018-06-21T02:12:03.965Z,58.59
2018-06-21T02:14:32.869Z,58.47
2018-06-21T02:17:00.610Z,58.37
2018-06-21T02:19:29.557Z,58.24
2018-06-21T02:21:57.308Z,58.17
2018-06-21T02:24:26.213Z,58.08
2018-06-21T02:26:54.539Z,58.04
2018-06-21T02:29:22.865Z,58.05
2018-06-21T02:31:51.178Z,57.95
2018-06-21T02:34:19.593Z,57.95
2018-06-21T02:36:47.836Z,58.01
2018-06-21T02:39:16.156Z,57.95
2018-06-21T02:41:43.899Z,57.99
2018-06-21T02:44:12.805Z,57.86
2018-06-21T02:46:41.136Z,57.82
2018-06-21T02:49:09.697Z,57.80
2018-06-21T02:51:37.800Z,57.77
2018-06-21T02:54:06.126Z,57.78
2018-06-21T02:56:34.446Z,57.84
2018-06-21T02:59:02.219Z,57.82
2018-06-21T03:01:31.126Z,57.85
2018-06-21T03:03:59.518Z,57.89
2018-06-21T03:06:27.189Z,57.84
2018-06-21T03:08:56.090Z,57.88
2018-06-21T03:11:24.429Z,57.84
2018-06-21T03:13:52.756Z,57.86
2018-06-21T03:16:21.099Z,57.88
2018-06-21T03:18:49.387Z,57.96
2018-06-21T03:21:17.191Z,58.00
2018-06-21T03:23:46.086Z,58.05
2018-06-21T03:26:14.417Z,57.99
2018-06-21T03:28:42.159Z,57.90
2018-06-21T03:31:10.485Z,57.88
2018-06-21T03:33:38.805Z,57.82
2018-06-21T03:36:07.759Z,57.81
2018-06-21T03:38:36.073Z,57.73
2018-06-21T03:41:05.172Z,57.67
2018-06-21T03:43:32.723Z,57.71
2018-06-21T03:46:01.043Z,57.68
2018-06-21T03:48:29.365Z,57.63
2018-06-21T03:50:57.694Z,57.47
2018-06-21T03:53:26.017Z,57.18
2018-06-21T03:55:54.343Z,57.11
2018-06-21T03:58:22.092Z,57.16
2018-06-21T04:00:50.418Z,57.18
2018-06-21T04:03:19.328Z,57.22
2018-06-21T04:05:47.069Z,57.26
2018-06-21T04:08:15.962Z,57.29
2018-06-21T04:10:44.278Z,57.26
2018-06-21T04:13:12.630Z,57.18
2018-06-21T04:15:40.992Z,57.19
2018-06-21T04:18:09.316Z,57.19
2018-06-21T04:20:37.672Z,57.27
2018-06-21T04:23:05.430Z,57.27
2018-06-21T04:25:33.756Z,57.33
2018-06-21T04:28:02.114Z,57.25
2018-06-21T04:30:31.034Z,57.08
2018-06-21T04:32:58.814Z,56.90
2018-06-21T04:35:27.121Z,57.06
2018-06-21T04:37:56.061Z,56.43
2018-06-21T04:40:23.765Z,56.31
2018-06-21T04:42:52.093Z,56.58
2018-06-21T04:45:21.238Z,56.05
2018-06-21T04:47:49.334Z,56.02
2018-06-21T04:50:17.348Z,56.05
2018-06-21T04:52:45.437Z,56.20
2018-06-21T04:55:14.312Z,56.14
2018-06-21T04:57:42.070Z,56.44
2018-06-21T05:00:10.498Z,56.11
2018-06-21T05:02:38.809Z,56.01
2018-06-21T05:05:07.723Z,55.97
2018-06-21T05:07:36.046Z,55.93
2018-06-21T05:10:03.788Z,56.07
2018-06-21T05:12:32.700Z,56.03
2018-06-21T05:15:00.493Z,55.65
2018-06-21T05:17:29.401Z,55.62
2018-06-21T05:19:57.725Z,55.56
2018-06-21T05:22:26.318Z,55.63
2018-06-21T05:24:54.342Z,55.64
2018-06-21T05:27:23.043Z,55.81
2018-06-21T05:29:51.658Z,55.72
2018-06-21T05:32:19.365Z,55.81
2018-06-21T05:34:48.369Z,55.62
2018-06-21T05:37:16.940Z,55.61
2018-06-21T05:39:45.143Z,55.50
2018-06-21T05:42:13.476Z,55.35
2018-06-21T05:44:41.816Z,55.43
2018-06-21T05:47:10.137Z,55.32
2018-06-21T05:49:39.931Z,55.44
2018-06-21T05:52:06.811Z,55.31
2018-06-21T05:54:35.159Z,54.92
2018-06-21T05:57:02.951Z,55.01
2018-06-21T05:59:31.841Z,54.89
2018-06-21T06:02:00.243Z,54.65
2018-06-21T06:04:28.501Z,54.36
2018-06-21T06:06:56.905Z,54.17
2018-06-21T06:09:25.235Z,54.13
2018-06-21T06:11:52.993Z,53.91
2018-06-21T06:14:21.314Z,54.01
2018-06-21T06:16:50.248Z,53.96
2018-06-21T06:19:18.647Z,53.39
2018-06-21T06:21:46.984Z,53.35
2018-06-21T06:24:14.743Z,53.09
2018-06-21T06:26:43.728Z,52.62
2018-06-21T06:29:12.045Z,52.33
2018-06-21T06:31:40.380Z,52.30
2018-06-21T06:34:09.087Z,51.67
2018-06-21T06:36:36.795Z,51.72
2018-06-21T06:39:05.714Z,51.55
2018-06-21T06:41:34.046Z,51.50
2018-06-21T06:44:01.835Z,51.40
2018-06-21T06:46:30.741Z,50.51
2018-06-21T06:48:59.082Z,50.76
2018-06-21T06:51:27.420Z,50.40
2018-06-21T06:53:55.866Z,49.34
2018-06-21T06:56:24.213Z,48.69
2018-06-21T06:58:51.974Z,48.80
2018-06-21T07:01:21.046Z,48.75
2018-06-21T07:03:49.377Z,48.72
2018-06-21T07:06:17.738Z,48.48
2018-06-21T07:08:46.060Z,48.57
2018-06-21T07:11:14.409Z,48.51
2018-06-21T07:13:42.839Z,47.23
2018-06-21T07:16:11.157Z,46.80
2018-06-21T07:18:39.490Z,47.06
2018-06-21T07:21:07.269Z,47.12
2018-06-21T07:23:36.193Z,46.24
2018-06-21T07:26:07.135Z,46.16
2018-06-21T07:28:35.687Z,45.75
2018-06-21T07:31:03.963Z,45.39
2018-06-21T07:33:32.301Z,44.74
2018-06-21T07:36:14.972Z,44.14
2018-06-21T07:38:44.180Z,44.27
2018-06-21T07:41:11.946Z,44.68
2018-06-21T07:43:40.259Z,44.04
2018-06-21T07:46:08.619Z,43.89
2018-06-21T07:48:36.949Z,43.83
2018-06-21T07:51:05.338Z,43.79
2018-06-21T07:53:33.655Z,43.45
2018-06-21T07:56:01.986Z,43.44
2018-06-21T07:58:30.322Z,43.07
2018-06-21T08:00:58.672Z,42.91
2018-06-21T08:03:26.419Z,42.54
2018-06-21T08:05:55.365Z,42.56
2018-06-21T08:08:23.711Z,42.47
2018-06-21T08:10:52.034Z,42.24
2018-06-21T08:13:19.807Z,42.42
2018-06-21T08:15:48.927Z,42.25
2018-06-21T08:18:17.558Z,41.98
2018-06-21T08:20:45.637Z,42.29
2018-06-21T08:23:13.393Z,41.46
2018-06-21T08:25:42.307Z,41.24
2018-06-21T08:28:10.644Z,41.28
2018-06-21T08:30:38.954Z,41.27
2018-06-21T08:33:07.293Z,41.55
2018-06-21T08:35:35.634Z,41.45
2018-06-21T08:38:03.958Z,40.95
2018-06-21T08:40:32.293Z,40.25
2018-06-21T08:43:00.037Z,40.08
2018-06-21T08:45:28.990Z,39.62
2018-06-21T08:47:56.760Z,39.39
2018-06-21T08:50:25.676Z,39.16
2018-06-21T08:52:54.978Z,38.72
2018-06-21T08:55:23.309Z,38.39
2018-06-21T08:57:51.639Z,38.17
2018-06-21T09:00:19.780Z,37.84
2018-06-21T09:02:47.775Z,37.27
2018-06-21T09:05:16.676Z,37.18
2018-06-21T09:07:45.024Z,37.34
2018-06-21T09:10:13.344Z,36.91
2018-06-21T09:12:41.103Z,36.30
2018-06-21T09:15:10.014Z,36.46
2018-06-21T09:17:38.331Z,35.92
2018-06-21T09:20:06.715Z,35.60
2018-06-21T09:22:35.036Z,35.05
2018-06-21T09:25:02.774Z,34.13
2018-06-21T09:27:31.100Z,34.42
2018-06-21T09:30:00.062Z,34.66
2018-06-21T09:32:28.454Z,33.51
2018-06-21T09:34:57.060Z,34.15
2018-06-21T09:37:25.623Z,33.33
2018-06-21T09:39:53.694Z,33.77
2018-06-21T09:42:23.962Z,33.25
2018-06-21T09:44:52.282Z,31.78
2018-06-21T09:47:20.036Z,31.85
2018-06-21T09:49:48.375Z,31.37
2018-06-21T09:52:17.300Z,31.71
2018-06-21T09:57:44.711Z,31.63
2018-06-21T10:00:13.049Z,31.53
2018-06-21T10:02:44.451Z,31.08
2018-06-21T10:05:12.792Z,31.26
2018-06-21T10:07:41.150Z,30.95
2018-06-21T10:10:10.512Z,31.06
2018-06-21T10:12:45.452Z,31.26
2018-06-21T10:15:14.966Z,31.47
2018-06-21T10:17:43.100Z,31.57
2018-06-21T10:20:11.443Z,31.46
2018-06-21T10:22:39.785Z,31.58
2018-06-21T10:25:08.355Z,31.59
2018-06-21T10:27:36.476Z,31.38
2018-06-21T10:30:05.074Z,31.57
2018-06-21T10:32:33.246Z,31.09
2018-06-21T10:35:01.783Z,31.30
2018-06-21T10:37:32.072Z,31.33
2018-06-21T10:40:02.481Z,31.54
2018-06-21T10:42:30.962Z,31.31
2018-06-21T10:45:01.118Z,31.44
2018-06-21T10:47:28.354Z,31.40
2018-06-21T10:49:56.699Z,30.63
2018-06-21T10:52:25.287Z,30.76
2018-06-21T10:54:54.509Z,30.60
2018-06-21T10:57:22.898Z,31.06
2018-06-21T10:59:51.660Z,31.11
2018-06-21T11:02:24.570Z,30.93
2018-06-21T11:04:54.110Z,30.52
2018-06-21T11:07:21.836Z,30.32
2018-06-21T11:09:49.702Z,30.12
2018-06-21T11:12:18.675Z,29.61
2018-06-21T11:14:49.216Z,29.72
2018-06-21T11:17:19.647Z,29.04
2018-06-21T11:19:51.648Z,28.82
2018-06-21T11:22:19.496Z,28.61
2018-06-21T11:24:47.828Z,28.06
2018-06-21T11:27:19.566Z,28.22
2018-06-21T11:29:47.870Z,28.43
2018-06-21T11:32:17.449Z,27.92
2018-06-21T11:34:45.609Z,28.04
2018-06-21T11:37:14.877Z,27.84
2018-06-21T11:39:43.290Z,28.24
2018-06-21T11:42:12.457Z,28.72
2018-06-21T11:44:40.036Z,28.78
2018-06-21T11:47:12.750Z,28.99
2018-06-21T11:49:41.054Z,29.24
2018-06-21T11:52:09.401Z,28.88
2018-06-21T11:54:37.740Z,29.40
2018-06-21T11:57:10.280Z,29.60
2018-06-21T11:59:37.218Z,29.46
2018-06-21T12:02:06.467Z,29.55
2018-06-21T12:04:37.265Z,29.47
2018-06-21T12:07:07.007Z,29.43
2018-06-21T12:09:35.919Z,29.20
2018-06-21T12:12:04.223Z,29.23
2018-06-21T12:14:34.939Z,29.16
2018-06-21T12:17:02.331Z,28.63
2018-06-21T12:19:30.687Z,29.06
2018-06-21T12:21:59.033Z,29.44
2018-06-21T12:24:27.395Z,29.66
2018-06-21T12:26:56.385Z,30.12
2018-06-21T12:29:24.903Z,30.37
2018-06-21T12:31:54.123Z,34.73
2018-06-21T12:34:24.757Z,39.40
2018-06-21T12:36:53.486Z,42.71
2018-06-21T12:39:21.800Z,44.16
2018-06-21T12:41:56.026Z,44.97
2018-06-21T12:44:24.177Z,46.08
2018-06-21T12:46:53.454Z,46.84
2018-06-21T12:49:21.837Z,47.74
2018-06-21T12:51:51.199Z,48.37
2018-06-21T12:54:21.465Z,49.05
2018-06-21T12:56:50.785Z,50.71
2018-06-21T12:59:35.657Z,50.60
2018-06-21T13:01:49.434Z,50.25
2018-06-21T13:04:18.457Z,49.74
2018-06-21T13:06:46.234Z,54.27
2018-06-21T13:09:25.236Z,52.01
2018-06-21T13:12:00.765Z,52.77
2018-06-21T13:14:29.302Z,53.72
2018-06-21T13:16:58.880Z,56.93
2018-06-21T13:19:29.210Z,59.73
2018-06-21T13:21:59.344Z,63.32
2018-06-21T13:24:26.857Z,66.60
2018-06-21T13:26:56.255Z,68.81
2018-06-21T13:29:27.927Z,73.38
2018-06-21T13:31:55.463Z,75.61
2018-06-21T13:34:24.818Z,75.25
2018-06-21T13:36:54.573Z,76.67
2018-06-21T13:39:21.626Z,75.66
2018-06-21T13:41:50.772Z,76.53
2018-06-21T13:44:17.842Z,77.20
2018-06-21T13:46:47.241Z,76.27
2018-06-21T13:49:16.323Z,77.07
2018-06-21T13:51:50.597Z,76.62
2018-06-21T13:54:18.354Z,76.92
2018-06-21T13:56:46.736Z,76.91
2018-06-21T13:59:16.606Z,77.73
2018-06-21T14:01:46.247Z,77.08
2018-06-21T14:04:14.367Z,77.71
2018-06-21T14:06:43.253Z,77.32
2018-06-21T14:09:12.452Z,77.33
2018-06-21T14:11:45.096Z,77.45
2018-06-21T14:14:10.773Z,77.49
2018-06-21T14:16:43.884Z,77.97
2018-06-21T14:19:24.508Z,76.89
2018-06-21T14:21:52.108Z,77.46
2018-06-21T14:24:19.617Z,78.75
2018-06-21T14:26:48.548Z,79.24
2018-06-21T14:29:16.321Z,79.23
2018-06-21T14:31:46.279Z,79.99
2018-06-21T14:34:15.741Z,80.11
2018-06-21T14:36:45.383Z,80.55
2018-06-21T14:39:17.881Z,81.76
2018-06-21T14:41:46.910Z,82.24
2018-06-21T14:44:16.799Z,81.21
2018-06-21T14:46:44.472Z,81.51
2018-06-21T14:49:14.320Z,81.32
2018-06-21T14:51:43.983Z,81.15
2018-06-21T14:54:13.182Z,80.68
2018-06-21T14:56:41.415Z,79.96
2018-06-21T14:59:10.813Z,79.84
2018-06-21T15:01:39.433Z,80.08
2018-06-21T15:04:07.613Z,80.33
2018-06-21T15:06:37.391Z,80.18
2018-06-21T15:09:04.953Z,80.08
2018-06-21T15:11:33.575Z,80.65
2018-06-21T15:14:01.910Z,80.66
2018-06-21T15:16:30.862Z,79.72
2018-06-21T15:18:59.285Z,78.89
2018-06-21T15:21:29.059Z,78.83
2018-06-21T15:23:57.761Z,79.06
2018-06-21T15:26:26.469Z,78.54
2018-06-21T15:28:55.771Z,77.66
2018-06-21T15:31:24.094Z,77.46
2018-06-21T15:33:52.425Z,78.35
2018-06-21T15:36:21.735Z,78.93
2018-06-21T15:38:48.822Z,80.66
2018-06-21T15:41:17.746Z,80.28
2018-06-21T15:43:46.075Z,80.76
2018-06-21T15:46:14.816Z,82.29
2018-06-21T15:48:43.125Z,82.25
2018-06-21T15:51:11.497Z,82.16
2018-06-21T15:53:40.086Z,82.30
2018-06-21T15:56:08.180Z,82.68
2018-06-21T15:58:36.572Z,82.57
2018-06-21T16:01:04.914Z,82.44
2018-06-21T16:03:33.259Z,82.29
2018-06-21T16:06:01.807Z,79.74
2018-06-21T16:08:29.907Z,80.40
2018-06-21T16:10:58.246Z,80.47
2018-06-21T16:13:26.618Z,80.52
2018-06-21T16:15:57.680Z,81.14
2018-06-21T16:18:26.007Z,81.09
2018-06-21T16:20:54.982Z,81.31
2018-06-21T16:23:23.091Z,81.13
2018-06-21T16:25:52.474Z,80.62
2018-06-21T16:28:21.508Z,80.89
2018-06-21T16:30:51.217Z,81.13
2018-06-21T16:33:17.670Z,80.60
2018-06-21T16:35:48.856Z,80.67
2018-06-21T16:38:17.127Z,80.11
2018-06-21T16:40:46.417Z,80.42
2018-06-21T16:43:17.233Z,79.70
2018-06-21T16:45:44.306Z,79.44
2018-06-21T16:48:12.837Z,79.32
2018-06-21T16:50:41.200Z,78.88
2018-06-21T16:53:10.078Z,78.99
2018-06-21T16:55:39.995Z,78.70
2018-06-21T16:58:08.963Z,78.48
2018-06-21T17:00:44.744Z,78.59
2018-06-21T17:03:08.958Z,78.72
2018-06-21T17:05:37.713Z,78.47
2018-06-21T17:08:05.771Z,78.80
2018-06-21T17:10:34.147Z,78.98
2018-06-21T17:13:02.565Z,78.20
2018-06-21T17:15:30.954Z,78.66
2018-06-21T17:17:59.417Z,78.14
2018-06-21T17:20:27.992Z,78.40
2018-06-21T17:22:58.900Z,79.09
2018-06-21T17:25:27.265Z,79.22
2018-06-21T17:27:55.847Z,78.71
2018-06-21T17:30:26.350Z,78.40
2018-06-21T17:32:53.393Z,78.25
2018-06-21T17:35:21.712Z,78.02
2018-06-21T17:37:50.043Z,78.46
2018-06-21T17:40:18.366Z,78.67
2018-06-21T17:42:47.181Z,78.76
2018-06-21T17:45:15.493Z,78.77
2018-06-21T17:47:43.833Z,78.35
2018-06-21T17:50:12.153Z,78.19
2018-06-21T17:52:40.516Z,78.67
2018-06-21T17:55:08.856Z,78.35
2018-06-21T17:57:37.180Z,78.34
2018-06-21T18:00:05.517Z,77.51
2018-06-21T18:02:34.476Z,77.77
2018-06-21T18:05:03.224Z,77.74
2018-06-21T18:07:31.573Z,77.47
2018-06-21T18:09:59.933Z,77.62
2018-06-21T18:12:28.286Z,77.49
2018-06-21T18:15:06.856Z,76.85
2018-06-21T18:17:27.292Z,77.14
2018-06-21T18:19:55.378Z,77.51
2018-06-21T18:22:33.977Z,77.41
2018-06-21T18:25:03.240Z,77.40
2018-06-21T18:27:30.812Z,77.16
2018-06-21T18:29:56.060Z,77.38
2018-06-21T18:32:30.083Z,77.44
2018-06-21T18:34:56.823Z,77.54
2018-06-21T18:37:29.608Z,77.82
2018-06-21T18:39:57.421Z,77.85
2018-06-21T18:42:28.069Z,77.71
2018-06-21T18:44:56.336Z,77.49
2018-06-21T18:47:26.528Z,77.50
2018-06-21T18:49:55.437Z,77.87
2018-06-21T18:52:23.782Z,78.03
2018-06-21T18:54:52.486Z,78.15
2018-06-21T18:57:20.842Z,78.91
2018-06-21T18:59:49.607Z,79.31
2018-06-21T19:02:17.787Z,79.81
2018-06-21T19:04:46.131Z,80.30
2018-06-21T19:07:14.708Z,80.18
2018-06-21T19:09:52.499Z,80.68
2018-06-21T19:12:22.181Z,80.67
2018-06-21T19:14:51.448Z,79.91
2018-06-21T19:17:20.417Z,79.62
2018-06-21T19:19:48.772Z,79.56
2018-06-21T19:22:16.559Z,78.87
2018-06-21T19:24:45.468Z,78.92
2018-06-21T19:27:14.954Z,78.69
2018-06-21T19:29:42.466Z,78.17
2018-06-21T19:32:12.060Z,78.28
2018-06-21T19:34:40.630Z,78.09
2018-06-21T19:37:08.720Z,78.07
2018-06-21T19:39:37.039Z,78.09
2018-06-21T19:42:05.370Z,77.99
2018-06-21T19:44:33.713Z,77.89
2018-06-21T19:47:02.154Z,77.90
2018-06-21T19:49:30.458Z,77.67
2018-06-21T19:51:58.818Z,77.60
2018-06-21T19:54:27.150Z,77.55
2018-06-21T19:56:55.563Z,77.08
2018-06-21T19:59:23.816Z,77.01
2018-06-21T20:01:52.172Z,77.39
2018-06-21T20:04:20.684Z,77.16
2018-06-21T20:06:49.035Z,77.30
2018-06-21T20:09:17.332Z,77.06
2018-06-21T20:11:52.432Z,77.26
2018-06-21T20:14:20.815Z,77.38
2018-06-21T20:16:50.136Z,77.52
2018-06-21T20:19:18.285Z,77.62
2018-06-21T20:21:46.605Z,77.58
2018-06-21T20:24:14.965Z,77.70
2018-06-21T20:26:43.380Z,77.93
2018-06-21T20:29:11.759Z,78.32
2018-06-21T20:31:40.298Z,78.44
2018-06-21T20:34:08.433Z,78.35
2018-06-21T20:36:36.827Z,78.81
2018-06-21T20:39:06.052Z,79.33
2018-06-21T20:41:34.350Z,79.58
2018-06-21T20:44:02.138Z,79.74
2018-06-21T20:46:31.113Z,79.91
2018-06-21T20:48:59.485Z,79.62
2018-06-21T20:51:27.789Z,79.46
2018-06-21T20:53:56.113Z,79.30
2018-06-21T20:56:24.466Z,79.11
2018-06-21T20:58:52.878Z,79.30
2018-06-21T21:01:20.603Z,79.11
2018-06-21T21:03:49.551Z,78.88
2018-06-21T21:06:17.889Z,78.77
2018-06-21T21:08:46.351Z,78.75
2018-06-21T21:11:14.090Z,78.21
2018-06-21T21:13:43.011Z,78.48
2018-06-21T21:16:11.361Z,78.80
2018-06-21T21:18:39.665Z,78.77
2018-06-21T21:21:08.063Z,78.41
2018-06-21T21:23:36.415Z,78.28
2018-06-21T21:26:05.018Z,78.11
2018-06-21T21:28:33.406Z,78.03
2018-06-21T21:31:01.531Z,77.72
2018-06-21T21:33:29.873Z,77.42
2018-06-21T21:35:58.428Z,77.54
2018-06-21T21:38:25.972Z,77.62
2018-06-21T21:40:54.354Z,77.84
2018-06-21T21:43:23.516Z,78.02
2018-06-21T21:45:51.626Z,78.03
2018-06-21T21:48:19.981Z,78.07
2018-06-21T21:50:47.778Z,78.17
2018-06-21T21:53:16.706Z,78.28
2018-06-21T21:55:45.034Z,78.21
2018-06-21T21:58:12.821Z,78.33
2018-06-21T22:00:41.935Z,78.26
2018-06-21T22:03:10.922Z,78.30
2018-06-21T22:05:39.300Z,78.17
2018-06-21T22:08:07.666Z,78.11
2018-06-21T22:10:35.962Z,78.01
2018-06-21T22:13:04.311Z,77.92
2018-06-21T22:15:32.027Z,77.75
2018-06-21T22:18:00.919Z,77.71
2018-06-21T22:20:29.252Z,77.65
2018-06-21T22:22:57.007Z,77.57
2018-06-21T22:25:25.908Z,77.62
2018-06-21T22:27:54.223Z,77.34
2018-06-21T22:30:22.543Z,77.33
2018-06-21T22:32:50.861Z,76.84
2018-06-21T22:35:18.618Z,76.81
2018-06-21T22:37:46.930Z,76.93
2018-06-21T22:40:15.837Z,77.06
2018-06-21T22:42:44.154Z,77.20
2018-06-21T22:45:12.471Z,77.49
2018-06-21T22:47:40.213Z,77.51
2018-06-21T22:50:09.122Z,77.55
2018-06-21T22:52:37.482Z,77.47
2018-06-21T22:55:05.224Z,77.33
2018-06-21T22:57:33.550Z,76.90
2018-06-21T23:00:02.454Z,77.04
2018-06-21T23:02:30.196Z,77.01
2018-06-21T23:04:59.098Z,76.86
2018-06-21T23:07:27.430Z,76.70
2018-06-21T23:09:55.738Z,76.28
2018-06-21T23:12:24.070Z,75.80
2018-06-21T23:14:52.386Z,75.84
2018-06-21T23:17:20.121Z,75.67
2018-06-21T23:19:49.012Z,75.79
2018-06-21T23:22:17.328Z,75.59
2018-06-21T23:24:45.065Z,75.09
2018-06-21T23:27:13.963Z,75.34
2018-06-21T23:29:42.297Z,75.16
2018-06-21T23:32:10.038Z,75.20
2018-06-21T23:34:38.934Z,75.16
2018-06-21T23:37:06.681Z,75.01
2018-06-21T23:39:35.574Z,74.83
2018-06-21T23:42:03.879Z,74.83
2018-06-21T23:44:32.213Z,74.69
2018-06-21T23:47:00.544Z,74.67
2018-06-21T23:49:28.858Z,74.59
2018-06-21T23:51:57.173Z,74.20
2018-06-21T23:54:24.978Z,74.15
2018-06-21T23:56:53.874Z,74.14
2018-06-21T23:59:22.192Z,74.42
